sensor_id;sensor_type;location;lat;lon;timestamp;pressure;altitude;pressure_sealevel;temperature;humidity
22333;BME280;11334;36.986;-121.936;2023-04-08T00:01:55;101338.63;;;15.49;100.00
22333;BME280;11334;36.986;-121.936;2023-04-08T00:04:21;101328.81;;;15.42;100.00
22333;BME280;11334;36.986;-121.936;2023-04-08T00:06:48;101331.81;;;15.47;100.00
22333;BME280;11334;36.986;-121.936;2023-04-08T00:09:14;101335.59;;;15.52;100.00
22333;BME280;11334;36.986;-121.936;2023-04-08T00:11:40;101333.59;;;15.47;100.00
22333;BME280;11334;36.986;-121.936;2023-04-08T00:14:07;101340.28;;;15.50;100.00
22333;BME280;11334;36.986;-121.936;2023-04-08T00:16:33;101330.63;;;15.49;100.00
22333;BME280;11334;36.986;-121.936;2023-04-08T00:18:59;101337.13;;;15.47;100.00
22333;BME280;11334;36.986;-121.936;2023-04-08T00:21:26;101327.13;;;15.41;100.00
22333;BME280;11334;36.986;-121.936;2023-04-08T00:23:52;101338.09;;;15.54;100.00
22333;BME280;11334;36.986;-121.936;2023-04-08T00:26:19;101334.59;;;15.53;100.00
22333;BME280;11334;36.986;-121.936;2023-04-08T00:28:45;101329.91;;;15.55;100.00
22333;BME280;11334;36.986;-121.936;2023-04-08T00:31:11;101326.94;;;15.50;100.00
22333;BME280;11334;36.986;-121.936;2023-04-08T00:33:37;101318.25;;;15.48;100.00
22333;BME280;11334;36.986;-121.936;2023-04-08T00:36:04;101321.75;;;15.49;100.00
22333;BME280;11334;36.986;-121.936;2023-04-08T00:38:30;101333.59;;;15.54;100.00
22333;BME280;11334;36.986;-121.936;2023-04-08T00:40:56;101330.06;;;15.54;100.00
22333;BME280;11334;36.986;-121.936;2023-04-08T00:43:23;101338.09;;;15.54;100.00
22333;BME280;11334;36.986;-121.936;2023-04-08T00:45:49;101335.25;;;15.55;100.00
22333;BME280;11334;36.986;-121.936;2023-04-08T00:48:15;101322.94;;;15.47;100.00
22333;BME280;11334;36.986;-121.936;2023-04-08T00:50:44;101344.41;;;15.61;100.00
22333;BME280;11334;36.986;-121.936;2023-04-08T00:53:16;101337.56;;;15.58;100.00
22333;BME280;11334;36.986;-121.936;2023-04-08T00:55:42;101337.56;;;15.58;100.00
22333;BME280;11334;36.986;-121.936;2023-04-08T00:58:09;101344.09;;;15.56;100.00
22333;BME280;11334;36.986;-121.936;2023-04-08T01:00:39;101331.91;;;15.53;100.00
22333;BME280;11334;36.986;-121.936;2023-04-08T01:03:15;101341.94;;;15.51;100.00
22333;BME280;11334;36.986;-121.936;2023-04-08T01:05:59;101340.44;;;15.49;100.00
22333;BME280;11334;36.986;-121.936;2023-04-08T01:08:28;101330.94;;;15.47;100.00
22333;BME280;11334;36.986;-121.936;2023-04-08T01:11:00;101312.94;;;15.41;100.00
22333;BME280;11334;36.986;-121.936;2023-04-08T01:13:30;101333.09;;;15.51;100.00
22333;BME280;11334;36.986;-121.936;2023-04-08T01:16:00;101333.59;;;15.47;100.00
22333;BME280;11334;36.986;-121.936;2023-04-08T01:18:28;101337.34;;;15.38;100.00
22333;BME280;11334;36.986;-121.936;2023-04-08T01:20:55;101333.66;;;15.39;100.00
22333;BME280;11334;36.986;-121.936;2023-04-08T01:23:40;101335.03;;;15.35;100.00
22333;BME280;11334;36.986;-121.936;2023-04-08T01:26:11;101336.84;;;15.34;100.00
22333;BME280;11334;36.986;-121.936;2023-04-08T01:28:38;101334.00;;;15.36;100.00
22333;BME280;11334;36.986;-121.936;2023-04-08T01:31:06;101320.19;;;15.32;100.00
22333;BME280;11334;36.986;-121.936;2023-04-08T01:33:33;101321.13;;;15.39;100.00
22333;BME280;11334;36.986;-121.936;2023-04-08T01:36:00;101331.69;;;15.33;100.00
22333;BME280;11334;36.986;-121.936;2023-04-08T01:38:27;101336.69;;;15.36;100.00
22333;BME280;11334;36.986;-121.936;2023-04-08T01:40:54;101341.00;;;15.37;100.00
22333;BME280;11334;36.986;-121.936;2023-04-08T01:43:23;101333.22;;;15.27;100.00
22333;BME280;11334;36.986;-121.936;2023-04-08T01:45:51;101351.69;;;15.37;100.00
22333;BME280;11334;36.986;-121.936;2023-04-08T01:48:23;101354.03;;;15.32;100.00
22333;BME280;11334;36.986;-121.936;2023-04-08T01:50:51;101347.75;;;15.25;100.00
22333;BME280;11334;36.986;-121.936;2023-04-08T01:53:18;101352.22;;;15.24;100.00
22333;BME280;11334;36.986;-121.936;2023-04-08T01:55:45;101351.06;;;15.19;100.00
22333;BME280;11334;36.986;-121.936;2023-04-08T01:58:17;101357.44;;;15.18;100.00
22333;BME280;11334;36.986;-121.936;2023-04-08T02:00:45;101343.28;;;15.10;100.00
22333;BME280;11334;36.986;-121.936;2023-04-08T02:03:12;101347.25;;;15.06;100.00
22333;BME280;11334;36.986;-121.936;2023-04-08T02:05:40;101366.78;;;15.14;100.00
22333;BME280;11334;36.986;-121.936;2023-04-08T02:08:06;101356.09;;;15.14;100.00
22333;BME280;11334;36.986;-121.936;2023-04-08T02:10:32;101353.97;;;15.10;100.00
22333;BME280;11334;36.986;-121.936;2023-04-08T02:12:58;101350.75;;;15.14;100.00
22333;BME280;11334;36.986;-121.936;2023-04-08T02:15:28;101354.44;;;15.13;100.00
22333;BME280;11334;36.986;-121.936;2023-04-08T02:18:10;101350.94;;;15.13;100.00
22333;BME280;11334;36.986;-121.936;2023-04-08T02:20:42;101359.09;;;15.11;100.00
22333;BME280;11334;36.986;-121.936;2023-04-08T02:23:18;101359.59;;;15.07;100.00
22333;BME280;11334;36.986;-121.936;2023-04-08T02:25:46;101365.78;;;15.07;100.00
22333;BME280;11334;36.986;-121.936;2023-04-08T02:28:14;101353.78;;;14.95;100.00
22333;BME280;11334;36.986;-121.936;2023-04-08T02:30:47;101364.78;;;15.00;100.00
22333;BME280;11334;36.986;-121.936;2023-04-08T02:33:13;101362.44;;;15.05;100.00
22333;BME280;11334;36.986;-121.936;2023-04-08T02:35:40;101355.78;;;15.09;100.00
22333;BME280;11334;36.986;-121.936;2023-04-08T02:38:08;101354.44;;;15.05;100.00
22333;BME280;11334;36.986;-121.936;2023-04-08T02:40:35;101359.41;;;15.08;100.00
22333;BME280;11334;36.986;-121.936;2023-04-08T02:43:02;101360.75;;;15.04;100.00
22333;BME280;11334;36.986;-121.936;2023-04-08T02:45:42;101357.28;;;14.96;100.00
22333;BME280;11334;36.986;-121.936;2023-04-08T02:48:09;101363.41;;;15.04;100.00
22333;BME280;11334;36.986;-121.936;2023-04-08T02:50:35;101357.13;;;14.97;100.00
22333;BME280;11334;36.986;-121.936;2023-04-08T02:53:02;101361.09;;;15.01;100.00
22333;BME280;11334;36.986;-121.936;2023-04-08T02:55:28;101352.28;;;15.01;100.00
22333;BME280;11334;36.986;-121.936;2023-04-08T02:57:55;101362.59;;;15.04;100.00
22333;BME280;11334;36.986;-121.936;2023-04-08T03:00:21;101378.44;;;15.05;100.00
22333;BME280;11334;36.986;-121.936;2023-04-08T03:02:47;101362.97;;;14.93;100.00
22333;BME280;11334;36.986;-121.936;2023-04-08T03:05:13;101370.63;;;14.96;100.00
22333;BME280;11334;36.986;-121.936;2023-04-08T03:07:41;101376.97;;;14.95;100.00
22333;BME280;11334;36.986;-121.936;2023-04-08T03:10:08;101376.81;;;14.88;100.00
22333;BME280;11334;36.986;-121.936;2023-04-08T03:12:34;101374.13;;;14.88;100.00
22333;BME280;11334;36.986;-121.936;2023-04-08T03:15:00;101361.13;;;14.85;100.00
22333;BME280;11334;36.986;-121.936;2023-04-08T03:17:28;101372.47;;;14.95;100.00
22333;BME280;11334;36.986;-121.936;2023-04-08T03:19:57;101379.47;;;14.96;100.00
22333;BME280;11334;36.986;-121.936;2023-04-08T03:22:23;101375.28;;;14.94;100.00
22333;BME280;11334;36.986;-121.936;2023-04-08T03:24:49;101380.81;;;14.92;100.00
22333;BME280;11334;36.986;-121.936;2023-04-08T03:27:16;101381.44;;;14.94;100.00
22333;BME280;11334;36.986;-121.936;2023-04-08T03:29:42;101390.97;;;14.97;100.00
22333;BME280;11334;36.986;-121.936;2023-04-08T03:32:10;101394.28;;;14.99;100.00
22333;BME280;11334;36.986;-121.936;2023-04-08T03:34:36;101413.81;;;15.07;100.00
22333;BME280;11334;36.986;-121.936;2023-04-08T03:37:02;101411.47;;;15.04;100.00
22333;BME280;11334;36.986;-121.936;2023-04-08T03:39:29;101409.16;;;14.85;100.00
22333;BME280;11334;36.986;-121.936;2023-04-08T03:41:55;101417.31;;;14.92;100.00
22333;BME280;11334;36.986;-121.936;2023-04-08T03:44:24;101429.00;;;14.99;100.00
22333;BME280;11334;36.986;-121.936;2023-04-08T03:46:50;101423.00;;;14.89;100.00
22333;BME280;11334;36.986;-121.936;2023-04-08T03:49:17;101427.16;;;14.91;100.00
22333;BME280;11334;36.986;-121.936;2023-04-08T03:51:43;101429.16;;;14.89;100.00
22333;BME280;11334;36.986;-121.936;2023-04-08T03:54:09;101438.34;;;14.95;100.00
22333;BME280;11334;36.986;-121.936;2023-04-08T03:56:35;101429.66;;;14.93;100.00
22333;BME280;11334;36.986;-121.936;2023-04-08T03:59:02;101425.00;;;14.87;100.00
22333;BME280;11334;36.986;-121.936;2023-04-08T04:01:28;101435.16;;;14.84;100.00
22333;BME280;11334;36.986;-121.936;2023-04-08T04:03:57;101438.84;;;14.90;100.00
22333;BME280;11334;36.986;-121.936;2023-04-08T04:06:23;101450.53;;;14.97;100.00
22333;BME280;11334;36.986;-121.936;2023-04-08T04:08:49;101444.69;;;14.86;100.00
22333;BME280;11334;36.986;-121.936;2023-04-08T04:11:18;101447.00;;;14.81;100.00
22333;BME280;11334;36.986;-121.936;2023-04-08T04:13:44;101455.84;;;14.82;100.00
22333;BME280;11334;36.986;-121.936;2023-04-08T04:16:10;101451.34;;;14.82;100.00
22333;BME280;11334;36.986;-121.936;2023-04-08T04:18:36;101438.19;;;14.73;100.00
22333;BME280;11334;36.986;-121.936;2023-04-08T04:21:06;101462.19;;;14.81;100.00
22333;BME280;11334;36.986;-121.936;2023-04-08T04:23:32;101453.31;;;14.64;100.00
22333;BME280;11334;36.986;-121.936;2023-04-08T04:25:58;101456.66;;;14.58;100.00
22333;BME280;11334;36.986;-121.936;2023-04-08T04:28:25;101467.84;;;14.70;100.00
22333;BME280;11334;36.986;-121.936;2023-04-08T04:30:51;101474.34;;;14.67;100.00
22333;BME280;11334;36.986;-121.936;2023-04-08T04:33:17;101444.31;;;14.50;100.00
22333;BME280;11334;36.986;-121.936;2023-04-08T04:35:43;101476.84;;;14.69;100.00
22333;BME280;11334;36.986;-121.936;2023-04-08T04:38:10;101482.19;;;14.77;100.00
22333;BME280;11334;36.986;-121.936;2023-04-08T04:40:38;101489.84;;;14.72;100.00
22333;BME280;11334;36.986;-121.936;2023-04-08T04:43:04;101495.84;;;14.66;100.00
22333;BME280;11334;36.986;-121.936;2023-04-08T04:45:30;101496.19;;;14.71;100.00
22333;BME280;11334;36.986;-121.936;2023-04-08T04:47:57;101495.19;;;14.80;100.00
22333;BME280;11334;36.986;-121.936;2023-04-08T04:50:23;101500.22;;;14.83;100.00
22333;BME280;11334;36.986;-121.936;2023-04-08T04:52:50;101495.03;;;14.73;100.00
22333;BME280;11334;36.986;-121.936;2023-04-08T04:55:16;101501.53;;;14.71;100.00
22333;BME280;11334;36.986;-121.936;2023-04-08T04:57:42;101506.69;;;14.72;100.00
22333;BME280;11334;36.986;-121.936;2023-04-08T05:00:09;101513.38;;;14.76;100.00
22333;BME280;11334;36.986;-121.936;2023-04-08T05:02:35;101508.53;;;14.80;100.00
22333;BME280;11334;36.986;-121.936;2023-04-08T05:05:02;101511.19;;;14.72;100.00
22333;BME280;11334;36.986;-121.936;2023-04-08T05:07:28;101481.31;;;14.52;100.00
22333;BME280;11334;36.986;-121.936;2023-04-08T05:09:54;101505.19;;;14.70;100.00
22333;BME280;11334;36.986;-121.936;2023-04-08T05:12:20;101500.53;;;14.72;100.00
22333;BME280;11334;36.986;-121.936;2023-04-08T05:14:47;101512.19;;;14.71;100.00
22333;BME280;11334;36.986;-121.936;2023-04-08T05:17:13;101516.38;;;14.81;100.00
22333;BME280;11334;36.986;-121.936;2023-04-08T05:19:39;101512.53;;;14.76;100.00
22333;BME280;11334;36.986;-121.936;2023-04-08T05:22:05;101522.53;;;14.74;100.00
22333;BME280;11334;36.986;-121.936;2023-04-08T05:24:31;101529.03;;;14.79;100.00
22333;BME280;11334;36.986;-121.936;2023-04-08T05:26:58;101518.22;;;14.81;100.00
22333;BME280;11334;36.986;-121.936;2023-04-08T05:29:24;101518.38;;;14.79;100.00
22333;BME280;11334;36.986;-121.936;2023-04-08T05:31:50;101516.03;;;14.76;100.00
22333;BME280;11334;36.986;-121.936;2023-04-08T05:34:17;101513.72;;;14.81;100.00
22333;BME280;11334;36.986;-121.936;2023-04-08T05:36:48;101519.03;;;14.81;100.00
22333;BME280;11334;36.986;-121.936;2023-04-08T05:39:18;101522.38;;;14.75;100.00
22333;BME280;11334;36.986;-121.936;2023-04-08T05:41:45;101515.22;;;14.76;100.00
22333;BME280;11334;36.986;-121.936;2023-04-08T05:44:12;101520.53;;;14.68;100.00
22333;BME280;11334;36.986;-121.936;2023-04-08T05:46:39;101521.19;;;14.70;100.00
22333;BME280;11334;36.986;-121.936;2023-04-08T05:49:05;101516.50;;;14.64;100.00
22333;BME280;11334;36.986;-121.936;2023-04-08T05:51:31;101507.19;;;14.68;100.00
22333;BME280;11334;36.986;-121.936;2023-04-08T05:53:57;101499.84;;;14.62;100.00
22333;BME280;11334;36.986;-121.936;2023-04-08T05:56:24;101505.34;;;14.60;100.00
22333;BME280;11334;36.986;-121.936;2023-04-08T05:58:50;101496.16;;;14.55;100.00
22333;BME280;11334;36.986;-121.936;2023-04-08T06:01:16;101499.69;;;14.55;100.00
22333;BME280;11334;36.986;-121.936;2023-04-08T06:03:42;101492.50;;;14.56;100.00
22333;BME280;11334;36.986;-121.936;2023-04-08T06:06:09;101489.50;;;14.51;100.00
22333;BME280;11334;36.986;-121.936;2023-04-08T06:08:39;101488.81;;;14.49;100.00
22333;BME280;11334;36.986;-121.936;2023-04-08T06:11:06;101467.34;;;14.51;100.00
22333;BME280;11334;36.986;-121.936;2023-04-08T06:13:32;101481.50;;;14.51;100.00
22333;BME280;11334;36.986;-121.936;2023-04-08T06:16:17;101470.97;;;14.57;100.00
22333;BME280;11334;36.986;-121.936;2023-04-08T06:18:43;101454.97;;;14.50;100.00
22333;BME280;11334;36.986;-121.936;2023-04-08T06:21:10;101468.84;;;14.61;100.00
22333;BME280;11334;36.986;-121.936;2023-04-08T06:23:36;101461.66;;;14.61;100.00
22333;BME280;11334;36.986;-121.936;2023-04-08T06:26:02;101470.84;;;14.59;100.00
22333;BME280;11334;36.986;-121.936;2023-04-08T06:28:30;101468.84;;;14.61;100.00
22333;BME280;11334;36.986;-121.936;2023-04-08T06:30:57;101457.84;;;14.64;100.00
22333;BME280;11334;36.986;-121.936;2023-04-08T06:33:24;101448.34;;;14.61;100.00
22333;BME280;11334;36.986;-121.936;2023-04-08T06:35:50;101454.84;;;14.67;100.00
22333;BME280;11334;36.986;-121.936;2023-04-08T06:38:16;101453.66;;;14.69;100.00
22333;BME280;11334;36.986;-121.936;2023-04-08T06:40:43;101451.00;;;14.69;100.00
22333;BME280;11334;36.986;-121.936;2023-04-08T06:43:09;101447.34;;;14.70;100.00
22333;BME280;11334;36.986;-121.936;2023-04-08T06:45:35;101420.97;;;14.52;100.00
22333;BME280;11334;36.986;-121.936;2023-04-08T06:48:01;101441.97;;;14.54;100.00
22333;BME280;11334;36.986;-121.936;2023-04-08T06:50:27;101444.66;;;14.62;100.00
22333;BME280;11334;36.986;-121.936;2023-04-08T06:52:54;101446.00;;;14.66;100.00
22333;BME280;11334;36.986;-121.936;2023-04-08T06:55:20;101446.69;;;14.68;100.00
22333;BME280;11334;36.986;-121.936;2023-04-08T06:57:47;101426.81;;;14.55;100.00
22333;BME280;11334;36.986;-121.936;2023-04-08T07:00:13;101458.16;;;14.61;100.00
22333;BME280;11334;36.986;-121.936;2023-04-08T07:02:40;101468.00;;;14.60;100.00
22333;BME280;11334;36.986;-121.936;2023-04-08T07:05:06;101467.50;;;14.65;100.00
22333;BME280;11334;36.986;-121.936;2023-04-08T07:07:32;101467.16;;;14.60;100.00
22333;BME280;11334;36.986;-121.936;2023-04-08T07:09:59;101458.00;;;14.62;100.00
22333;BME280;11334;36.986;-121.936;2023-04-08T07:12:25;101469.66;;;14.61;100.00
22333;BME280;11334;36.986;-121.936;2023-04-08T07:14:51;101470.16;;;14.65;100.00
22333;BME280;11334;36.986;-121.936;2023-04-08T07:17:18;101466.81;;;14.55;100.00
22333;BME280;11334;36.986;-121.936;2023-04-08T07:19:44;101478.50;;;14.54;100.00
22333;BME280;11334;36.986;-121.936;2023-04-08T07:22:10;101483.81;;;14.54;100.00
22333;BME280;11334;36.986;-121.936;2023-04-08T07:24:36;101488.81;;;14.57;100.00
22333;BME280;11334;36.986;-121.936;2023-04-08T07:27:03;101479.50;;;14.53;100.00
22333;BME280;11334;36.986;-121.936;2023-04-08T07:29:29;101479.84;;;14.58;100.00
22333;BME280;11334;36.986;-121.936;2023-04-08T07:31:56;101488.00;;;14.64;100.00
22333;BME280;11334;36.986;-121.936;2023-04-08T07:34:22;101484.84;;;14.53;100.00
22333;BME280;11334;36.986;-121.936;2023-04-08T07:36:48;101480.47;;;14.52;100.00
22333;BME280;11334;36.986;-121.936;2023-04-08T07:39:14;101467.16;;;14.52;100.00
22333;BME280;11334;36.986;-121.936;2023-04-08T07:41:43;101469.31;;;14.56;100.00
22333;BME280;11334;36.986;-121.936;2023-04-08T07:44:10;101467.47;;;14.49;100.00
22333;BME280;11334;36.986;-121.936;2023-04-08T07:46:36;101459.47;;;14.49;100.00
22333;BME280;11334;36.986;-121.936;2023-04-08T07:49:03;101456.66;;;14.51;100.00
22333;BME280;11334;36.986;-121.936;2023-04-08T07:51:29;101442.31;;;14.44;100.00
22333;BME280;11334;36.986;-121.936;2023-04-08T07:53:55;101465.50;;;14.51;100.00
22333;BME280;11334;36.986;-121.936;2023-04-08T07:56:22;101460.50;;;14.56;100.00
22333;BME280;11334;36.986;-121.936;2023-04-08T07:58:48;101460.50;;;14.56;100.00
22333;BME280;11334;36.986;-121.936;2023-04-08T08:01:21;101457.66;;;14.57;100.00
22333;BME280;11334;36.986;-121.936;2023-04-08T08:03:49;101457.50;;;14.59;100.00
22333;BME280;11334;36.986;-121.936;2023-04-08T08:06:16;101461.19;;;14.58;100.00
22333;BME280;11334;36.986;-121.936;2023-04-08T08:08:43;101453.00;;;14.59;100.00
22333;BME280;11334;36.986;-121.936;2023-04-08T08:11:09;101463.16;;;14.56;100.00
22333;BME280;11334;36.986;-121.936;2023-04-08T08:13:35;101465.34;;;14.60;100.00
22333;BME280;11334;36.986;-121.936;2023-04-08T08:16:02;101464.47;;;14.60;100.00
22333;BME280;11334;36.986;-121.936;2023-04-08T08:18:28;101458.66;;;14.56;100.00
22333;BME280;11334;36.986;-121.936;2023-04-08T08:20:54;101465.66;;;14.57;100.00
22333;BME280;11334;36.986;-121.936;2023-04-08T08:23:23;101457.34;;;14.60;100.00
22333;BME280;11334;36.986;-121.936;2023-04-08T08:26:01;101468.66;;;14.62;100.00
22333;BME280;11334;36.986;-121.936;2023-04-08T08:28:27;101436.97;;;14.44;100.00
22333;BME280;11334;36.986;-121.936;2023-04-08T08:30:54;101457.66;;;14.50;100.00
22333;BME280;11334;36.986;-121.936;2023-04-08T08:33:20;101462.50;;;14.54;100.00
22333;BME280;11334;36.986;-121.936;2023-04-08T08:35:46;101466.00;;;14.62;100.00
22333;BME280;11334;36.986;-121.936;2023-04-08T08:38:12;101456.19;;;14.63;100.00
22333;BME280;11334;36.986;-121.936;2023-04-08T08:40:39;101455.16;;;14.64;100.00
22333;BME280;11334;36.986;-121.936;2023-04-08T08:43:05;101462.84;;;14.67;100.00
22333;BME280;11334;36.986;-121.936;2023-04-08T08:45:32;101462.84;;;14.59;100.00
22333;BME280;11334;36.986;-121.936;2023-04-08T08:47:58;101456.50;;;14.60;100.00
22333;BME280;11334;36.986;-121.936;2023-04-08T08:50:25;101457.50;;;14.59;100.00
22333;BME280;11334;36.986;-121.936;2023-04-08T08:52:52;101462.00;;;14.66;100.00
22333;BME280;11334;36.986;-121.936;2023-04-08T08:55:19;101468.50;;;14.64;100.00
22333;BME280;11334;36.986;-121.936;2023-04-08T08:57:49;101467.69;;;14.63;100.00
22333;BME280;11334;36.986;-121.936;2023-04-08T09:00:16;101464.00;;;14.64;100.00
22333;BME280;11334;36.986;-121.936;2023-04-08T09:02:43;101461.34;;;14.64;100.00
22333;BME280;11334;36.986;-121.936;2023-04-08T09:05:09;101473.50;;;14.67;100.00
22333;BME280;11334;36.986;-121.936;2023-04-08T09:07:37;101460.50;;;14.64;100.00
22333;BME280;11334;36.986;-121.936;2023-04-08T09:10:07;101462.69;;;14.60;100.00
22333;BME280;11334;36.986;-121.936;2023-04-08T09:12:34;101464.16;;;14.55;100.00
22333;BME280;11334;36.986;-121.936;2023-04-08T09:15:05;101468.00;;;14.60;100.00
22333;BME280;11334;36.986;-121.936;2023-04-08T09:17:38;101458.31;;;14.52;100.00
22333;BME280;11334;36.986;-121.936;2023-04-08T09:20:10;101458.81;;;14.55;100.00
22333;BME280;11334;36.986;-121.936;2023-04-08T09:23:00;101454.50;;;14.62;100.00
22333;BME280;11334;36.986;-121.936;2023-04-08T09:25:31;101451.66;;;14.55;100.00
22333;BME280;11334;36.986;-121.936;2023-04-08T09:27:58;101450.16;;;14.53;100.00
22333;BME280;11334;36.986;-121.936;2023-04-08T09:30:25;101455.31;;;14.54;100.00
22333;BME280;11334;36.986;-121.936;2023-04-08T09:32:56;101440.47;;;14.52;100.00
22333;BME280;11334;36.986;-121.936;2023-04-08T09:35:23;101427.97;;;14.52;100.00
22333;BME280;11334;36.986;-121.936;2023-04-08T09:37:50;101421.81;;;14.52;100.00
22333;BME280;11334;36.986;-121.936;2023-04-08T09:40:18;101408.97;;;14.48;100.00
22333;BME280;11334;36.986;-121.936;2023-04-08T09:42:46;101413.13;;;14.50;100.00
22333;BME280;11334;36.986;-121.936;2023-04-08T09:45:16;101413.13;;;14.50;100.00
22333;BME280;11334;36.986;-121.936;2023-04-08T09:48:21;101412.31;;;14.50;100.00
22333;BME280;11334;36.986;-121.936;2023-04-08T09:50:50;101416.97;;;14.48;100.00
22333;BME280;11334;36.986;-121.936;2023-04-08T09:53:28;101417.50;;;14.43;100.00
22333;BME280;11334;36.986;-121.936;2023-04-08T09:55:56;101416.31;;;14.46;100.00
22333;BME280;11334;36.986;-121.936;2023-04-08T09:58:58;101412.47;;;14.40;100.00
22333;BME280;11334;36.986;-121.936;2023-04-08T10:01:39;101420.16;;;14.43;100.00
22333;BME280;11334;36.986;-121.936;2023-04-08T10:04:13;101412.66;;;14.47;100.00
22333;BME280;11334;36.986;-121.936;2023-04-08T10:06:41;101411.16;;;14.44;100.00
22333;BME280;11334;36.986;-121.936;2023-04-08T10:09:08;101402.13;;;14.37;100.00
22333;BME280;11334;36.986;-121.936;2023-04-08T10:11:35;101413.47;;;14.39;100.00
22333;BME280;11334;36.986;-121.936;2023-04-08T10:14:02;101405.13;;;14.34;100.00
22333;BME280;11334;36.986;-121.936;2023-04-08T10:16:29;101419.13;;;14.44;100.00
22333;BME280;11334;36.986;-121.936;2023-04-08T10:18:55;101366.09;;;14.02;100.00
22333;BME280;11334;36.986;-121.936;2023-04-08T10:24:04;101429.13;;;14.42;100.00
22333;BME280;11334;36.986;-121.936;2023-04-08T10:26:36;101433.81;;;14.48;100.00
22333;BME280;11334;36.986;-121.936;2023-04-08T10:31:47;101443.63;;;14.48;100.00
22333;BME280;11334;36.986;-121.936;2023-04-08T10:34:21;101422.47;;;14.38;100.00
22333;BME280;11334;36.986;-121.936;2023-04-08T10:36:52;101436.97;;;14.44;100.00
22333;BME280;11334;36.986;-121.936;2023-04-08T10:39:20;101441.13;;;14.38;100.00
22333;BME280;11334;36.986;-121.936;2023-04-08T10:41:50;101441.13;;;14.38;100.00
22333;BME280;11334;36.986;-121.936;2023-04-08T10:44:23;101439.31;;;14.47;100.00
22333;BME280;11334;36.986;-121.936;2023-04-08T10:46:52;101435.16;;;14.44;100.00
22333;BME280;11334;36.986;-121.936;2023-04-08T10:49:19;101440.47;;;14.44;100.00
22333;BME280;11334;36.986;-121.936;2023-04-08T10:51:46;101444.78;;;14.45;100.00
22333;BME280;11334;36.986;-121.936;2023-04-08T10:54:15;101432.28;;;14.38;100.00
22333;BME280;11334;36.986;-121.936;2023-04-08T10:56:49;101425.09;;;14.30;100.00
22333;BME280;11334;36.986;-121.936;2023-04-08T10:59:26;101432.81;;;14.41;100.00
22333;BME280;11334;36.986;-121.936;2023-04-08T11:01:52;101430.47;;;14.46;100.00
22333;BME280;11334;36.986;-121.936;2023-04-08T11:04:20;101423.31;;;14.47;100.00
22333;BME280;11334;36.986;-121.936;2023-04-08T11:06:48;101405.97;;;14.35;100.00
22333;BME280;11334;36.986;-121.936;2023-04-08T11:09:15;101427.13;;;14.44;100.00
22333;BME280;11334;36.986;-121.936;2023-04-08T11:11:45;101410.13;;;14.45;100.00
22333;BME280;11334;36.986;-121.936;2023-04-08T11:14:12;101417.81;;;14.48;100.00
22333;BME280;11334;36.986;-121.936;2023-04-08T11:16:39;101419.81;;;14.38;100.00
22333;BME280;11334;36.986;-121.936;2023-04-08T11:19:06;101419.13;;;14.36;100.00
22333;BME280;11334;36.986;-121.936;2023-04-08T11:21:36;101432.31;;;14.46;100.00
22333;BME280;11334;36.986;-121.936;2023-04-08T11:24:09;101426.81;;;14.39;100.00
22333;BME280;11334;36.986;-121.936;2023-04-08T11:26:37;101427.63;;;14.40;100.00
22333;BME280;11334;36.986;-121.936;2023-04-08T11:29:04;101427.97;;;14.37;100.00
22333;BME280;11334;36.986;-121.936;2023-04-08T11:31:31;101395.13;;;14.28;100.00
22333;BME280;11334;36.986;-121.936;2023-04-08T11:33:58;101395.63;;;14.32;100.00
22333;BME280;11334;36.986;-121.936;2023-04-08T11:36:27;101402.13;;;14.37;100.00
22333;BME280;11334;36.986;-121.936;2023-04-08T11:38:54;101403.13;;;14.28;100.00
22333;BME280;11334;36.986;-121.936;2023-04-08T11:41:20;101409.78;;;14.32;100.00
22333;BME280;11334;36.986;-121.936;2023-04-08T11:43:51;101411.97;;;14.37;100.00
22333;BME280;11334;36.986;-121.936;2023-04-08T11:46:17;101415.94;;;14.33;100.00
22333;BME280;11334;36.986;-121.936;2023-04-08T11:49:17;101408.13;;;14.39;100.00
22333;BME280;11334;36.986;-121.936;2023-04-08T11:51:57;101409.78;;;14.40;100.00
22333;BME280;11334;36.986;-121.936;2023-04-08T11:54:31;101410.81;;;14.39;100.00
22333;BME280;11334;36.986;-121.936;2023-04-08T11:56:58;101414.81;;;14.43;100.00
22333;BME280;11334;36.986;-121.936;2023-04-08T11:59:25;101415.66;;;14.44;100.00
22333;BME280;11334;36.986;-121.936;2023-04-08T12:01:51;101416.63;;;14.43;100.00
22333;BME280;11334;36.986;-121.936;2023-04-08T12:04:18;101396.78;;;14.29;100.00
22333;BME280;11334;36.986;-121.936;2023-04-08T12:06:44;101416.81;;;14.33;100.00
22333;BME280;11334;36.986;-121.936;2023-04-08T12:09:14;101403.44;;;14.25;100.00
22333;BME280;11334;36.986;-121.936;2023-04-08T12:11:40;101413.94;;;14.27;100.00
22333;BME280;11334;36.986;-121.936;2023-04-08T12:14:07;101428.78;;;14.29;100.00
22333;BME280;11334;36.986;-121.936;2023-04-08T12:16:33;101430.28;;;14.32;100.00
22333;BME280;11334;36.986;-121.936;2023-04-08T12:18:59;101424.47;;;14.36;100.00
22333;BME280;11334;36.986;-121.936;2023-04-08T12:21:25;101425.78;;;14.40;100.00